sensor_id;sensor_type;location;lat;lon;timestamp;P1;durP1;ratioP1;P2;durP2;ratioP2
10335;SDS011;5213;53.548;9.930;2023-04-03T00:00:33;6.05;;;1.90;;
10335;SDS011;5213;53.548;9.930;2023-04-03T00:02:59;4.22;;;1.92;;
10335;SDS011;5213;53.548;9.930;2023-04-03T00:05:25;4.45;;;2.17;;
10335;SDS011;5213;53.548;9.930;2023-04-03T00:07:51;4.75;;;2.30;;
10335;SDS011;5213;53.548;9.930;2023-04-03T00:10:17;5.53;;;2.13;;
10335;SDS011;5213;53.548;9.930;2023-04-03T00:12:43;6.32;;;2.03;;
10335;SDS011;5213;53.548;9.930;2023-04-03T00:15:10;2.83;;;2.00;;
10335;SDS011;5213;53.548;9.930;2023-04-03T00:17:36;4.90;;;2.10;;
10335;SDS011;5213;53.548;9.930;2023-04-03T00:20:02;6.45;;;2.28;;
10335;SDS011;5213;53.548;9.930;2023-04-03T00:22:28;6.10;;;1.88;;
10335;SDS011;5213;53.548;9.930;2023-04-03T00:24:55;4.35;;;1.95;;
10335;SDS011;5213;53.548;9.930;2023-04-03T00:27:21;9.30;;;2.92;;
10335;SDS011;5213;53.548;9.930;2023-04-03T00:29:47;6.97;;;2.15;;
10335;SDS011;5213;53.548;9.930;2023-04-03T00:32:13;6.43;;;2.33;;
10335;SDS011;5213;53.548;9.930;2023-04-03T00:34:39;4.60;;;2.30;;
10335;SDS011;5213;53.548;9.930;2023-04-03T00:37:05;4.75;;;2.40;;
10335;SDS011;5213;53.548;9.930;2023-04-03T00:39:31;7.10;;;2.25;;
10335;SDS011;5213;53.548;9.930;2023-04-03T00:41:57;4.28;;;1.80;;
10335;SDS011;5213;53.548;9.930;2023-04-03T00:46:59;4.82;;;2.05;;
10335;SDS011;5213;53.548;9.930;2023-04-03T00:49:25;4.05;;;2.00;;
10335;SDS011;5213;53.548;9.930;2023-04-03T00:51:52;2.60;;;1.90;;
10335;SDS011;5213;53.548;9.930;2023-04-03T00:54:18;4.22;;;2.10;;
10335;SDS011;5213;53.548;9.930;2023-04-03T00:56:44;4.35;;;2.20;;
10335;SDS011;5213;53.548;9.930;2023-04-03T00:59:18;4.85;;;2.03;;
10335;SDS011;5213;53.548;9.930;2023-04-03T01:01:48;3.22;;;1.70;;
10335;SDS011;5213;53.548;9.930;2023-04-03T01:07:14;4.78;;;2.20;;
10335;SDS011;5213;53.548;9.930;2023-04-03T01:09:41;3.90;;;2.13;;
10335;SDS011;5213;53.548;9.930;2023-04-03T01:14:41;3.63;;;2.53;;
10335;SDS011;5213;53.548;9.930;2023-04-03T01:19:56;5.68;;;2.45;;
10335;SDS011;5213;53.548;9.930;2023-04-03T01:22:27;3.42;;;2.22;;
10335;SDS011;5213;53.548;9.930;2023-04-03T01:24:55;5.10;;;2.25;;
10335;SDS011;5213;53.548;9.930;2023-04-03T01:27:21;6.57;;;2.38;;
10335;SDS011;5213;53.548;9.930;2023-04-03T01:29:47;3.40;;;2.10;;
10335;SDS011;5213;53.548;9.930;2023-04-03T01:32:13;5.15;;;2.83;;
10335;SDS011;5213;53.548;9.930;2023-04-03T01:34:39;5.57;;;2.15;;
10335;SDS011;5213;53.548;9.930;2023-04-03T01:37:06;3.45;;;2.00;;
10335;SDS011;5213;53.548;9.930;2023-04-03T01:39:32;2.83;;;2.03;;
10335;SDS011;5213;53.548;9.930;2023-04-03T01:41:58;2.70;;;2.20;;
10335;SDS011;5213;53.548;9.930;2023-04-03T01:44:24;5.05;;;2.08;;
10335;SDS011;5213;53.548;9.930;2023-04-03T01:46:50;4.50;;;2.10;;
10335;SDS011;5213;53.548;9.930;2023-04-03T01:49:16;4.63;;;2.42;;
10335;SDS011;5213;53.548;9.930;2023-04-03T01:51:42;4.80;;;2.15;;
10335;SDS011;5213;53.548;9.930;2023-04-03T01:54:08;4.97;;;2.13;;
10335;SDS011;5213;53.548;9.930;2023-04-03T01:56:34;3.65;;;2.33;;
10335;SDS011;5213;53.548;9.930;2023-04-03T01:59:00;5.32;;;2.13;;
10335;SDS011;5213;53.548;9.930;2023-04-03T02:01:26;9.43;;;2.65;;
10335;SDS011;5213;53.548;9.930;2023-04-03T02:03:52;3.72;;;2.25;;
10335;SDS011;5213;53.548;9.930;2023-04-03T02:06:18;5.97;;;2.25;;
10335;SDS011;5213;53.548;9.930;2023-04-03T02:08:45;7.38;;;2.47;;
10335;SDS011;5213;53.548;9.930;2023-04-03T02:11:11;3.45;;;1.95;;
10335;SDS011;5213;53.548;9.930;2023-04-03T02:13:37;3.83;;;2.00;;
10335;SDS011;5213;53.548;9.930;2023-04-03T02:16:07;3.67;;;2.40;;
10335;SDS011;5213;53.548;9.930;2023-04-03T02:18:33;3.75;;;2.05;;
10335;SDS011;5213;53.548;9.930;2023-04-03T02:20:59;6.25;;;2.42;;
10335;SDS011;5213;53.548;9.930;2023-04-03T02:23:25;4.25;;;2.22;;
10335;SDS011;5213;53.548;9.930;2023-04-03T02:25:51;5.75;;;2.53;;
10335;SDS011;5213;53.548;9.930;2023-04-03T02:28:17;5.85;;;2.33;;
10335;SDS011;5213;53.548;9.930;2023-04-03T02:30:43;5.43;;;2.45;;
10335;SDS011;5213;53.548;9.930;2023-04-03T02:33:09;4.55;;;2.50;;
10335;SDS011;5213;53.548;9.930;2023-04-03T02:35:35;4.35;;;2.30;;
10335;SDS011;5213;53.548;9.930;2023-04-03T02:38:01;5.70;;;2.63;;
10335;SDS011;5213;53.548;9.930;2023-04-03T02:40:27;7.88;;;2.65;;
10335;SDS011;5213;53.548;9.930;2023-04-03T02:42:53;4.53;;;2.42;;
10335;SDS011;5213;53.548;9.930;2023-04-03T02:45:19;5.55;;;2.40;;
10335;SDS011;5213;53.548;9.930;2023-04-03T02:47:45;4.88;;;3.05;;
10335;SDS011;5213;53.548;9.930;2023-04-03T02:50:12;4.40;;;2.50;;
10335;SDS011;5213;53.548;9.930;2023-04-03T02:52:37;5.60;;;2.35;;
10335;SDS011;5213;53.548;9.930;2023-04-03T02:55:04;5.00;;;2.97;;
10335;SDS011;5213;53.548;9.930;2023-04-03T02:57:30;6.55;;;2.80;;
10335;SDS011;5213;53.548;9.930;2023-04-03T02:59:56;5.15;;;2.78;;
10335;SDS011;5213;53.548;9.930;2023-04-03T03:02:22;5.05;;;2.65;;
10335;SDS011;5213;53.548;9.930;2023-04-03T03:04:48;3.58;;;2.17;;
10335;SDS011;5213;53.548;9.930;2023-04-03T03:07:14;9.55;;;2.50;;
10335;SDS011;5213;53.548;9.930;2023-04-03T03:09:40;5.45;;;2.38;;
10335;SDS011;5213;53.548;9.930;2023-04-03T03:12:06;5.93;;;2.67;;
10335;SDS011;5213;53.548;9.930;2023-04-03T03:14:32;4.97;;;2.50;;
10335;SDS011;5213;53.548;9.930;2023-04-03T03:16:58;4.03;;;2.58;;
10335;SDS011;5213;53.548;9.930;2023-04-03T03:19:25;5.20;;;2.53;;
10335;SDS011;5213;53.548;9.930;2023-04-03T03:21:51;5.97;;;2.67;;
10335;SDS011;5213;53.548;9.930;2023-04-03T03:24:17;4.20;;;2.15;;
10335;SDS011;5213;53.548;9.930;2023-04-03T03:26:43;4.80;;;2.42;;
10335;SDS011;5213;53.548;9.930;2023-04-03T03:29:09;5.93;;;2.50;;
10335;SDS011;5213;53.548;9.930;2023-04-03T03:31:35;5.50;;;2.80;;
10335;SDS011;5213;53.548;9.930;2023-04-03T03:34:01;4.18;;;2.42;;
10335;SDS011;5213;53.548;9.930;2023-04-03T03:36:27;3.58;;;2.58;;
10335;SDS011;5213;53.548;9.930;2023-04-03T03:38:53;3.95;;;2.50;;
10335;SDS011;5213;53.548;9.930;2023-04-03T03:41:19;3.35;;;2.35;;
10335;SDS011;5213;53.548;9.930;2023-04-03T03:43:45;5.35;;;2.70;;
10335;SDS011;5213;53.548;9.930;2023-04-03T03:46:11;4.13;;;2.63;;
10335;SDS011;5213;53.548;9.930;2023-04-03T03:48:37;3.92;;;2.60;;
10335;SDS011;5213;53.548;9.930;2023-04-03T03:51:03;3.78;;;2.33;;
10335;SDS011;5213;53.548;9.930;2023-04-03T03:53:29;6.00;;;2.70;;
10335;SDS011;5213;53.548;9.930;2023-04-03T03:55:55;6.68;;;2.92;;
10335;SDS011;5213;53.548;9.930;2023-04-03T03:58:21;4.38;;;2.60;;
10335;SDS011;5213;53.548;9.930;2023-04-03T04:00:48;4.70;;;2.38;;
10335;SDS011;5213;53.548;9.930;2023-04-03T04:03:14;4.38;;;2.70;;
10335;SDS011;5213;53.548;9.930;2023-04-03T04:05:40;4.70;;;2.33;;
10335;SDS011;5213;53.548;9.930;2023-04-03T04:08:06;3.80;;;2.60;;
10335;SDS011;5213;53.548;9.930;2023-04-03T04:10:33;5.20;;;2.95;;
10335;SDS011;5213;53.548;9.930;2023-04-03T04:12:59;5.85;;;2.72;;
10335;SDS011;5213;53.548;9.930;2023-04-03T04:15:25;9.50;;;2.50;;
10335;SDS011;5213;53.548;9.930;2023-04-03T04:17:51;6.13;;;2.85;;
10335;SDS011;5213;53.548;9.930;2023-04-03T04:20:18;6.22;;;2.65;;
10335;SDS011;5213;53.548;9.930;2023-04-03T04:22:44;6.70;;;2.60;;
10335;SDS011;5213;53.548;9.930;2023-04-03T04:25:10;4.00;;;2.60;;
10335;SDS011;5213;53.548;9.930;2023-04-03T04:27:36;6.30;;;2.50;;
10335;SDS011;5213;53.548;9.930;2023-04-03T04:30:03;4.50;;;2.90;;
10335;SDS011;5213;53.548;9.930;2023-04-03T04:32:29;8.80;;;2.95;;
10335;SDS011;5213;53.548;9.930;2023-04-03T04:34:55;5.60;;;2.78;;
10335;SDS011;5213;53.548;9.930;2023-04-03T04:37:21;4.45;;;2.75;;
10335;SDS011;5213;53.548;9.930;2023-04-03T04:39:47;7.28;;;2.65;;
10335;SDS011;5213;53.548;9.930;2023-04-03T04:42:14;4.05;;;2.78;;
10335;SDS011;5213;53.548;9.930;2023-04-03T04:44:40;5.80;;;3.25;;
10335;SDS011;5213;53.548;9.930;2023-04-03T04:47:06;4.28;;;2.60;;
10335;SDS011;5213;53.548;9.930;2023-04-03T04:49:32;7.00;;;2.78;;
10335;SDS011;5213;53.548;9.930;2023-04-03T04:51:58;7.97;;;3.10;;
10335;SDS011;5213;53.548;9.930;2023-04-03T04:54:24;4.00;;;2.90;;
10335;SDS011;5213;53.548;9.930;2023-04-03T04:56:50;5.03;;;3.15;;
10335;SDS011;5213;53.548;9.930;2023-04-03T04:59:16;3.47;;;2.70;;
10335;SDS011;5213;53.548;9.930;2023-04-03T05:01:42;3.63;;;2.80;;
10335;SDS011;5213;53.548;9.930;2023-04-03T05:04:08;6.40;;;3.03;;
10335;SDS011;5213;53.548;9.930;2023-04-03T05:06:34;6.88;;;3.15;;
10335;SDS011;5213;53.548;9.930;2023-04-03T05:09:00;7.15;;;3.17;;
10335;SDS011;5213;53.548;9.930;2023-04-03T05:11:26;8.88;;;3.65;;
10335;SDS011;5213;53.548;9.930;2023-04-03T05:13:52;12.57;;;4.30;;
10335;SDS011;5213;53.548;9.930;2023-04-03T05:16:18;6.80;;;3.25;;
10335;SDS011;5213;53.548;9.930;2023-04-03T05:18:44;7.18;;;3.33;;
10335;SDS011;5213;53.548;9.930;2023-04-03T05:21:10;11.23;;;3.88;;
10335;SDS011;5213;53.548;9.930;2023-04-03T05:23:37;5.93;;;3.22;;
10335;SDS011;5213;53.548;9.930;2023-04-03T05:26:03;4.95;;;3.50;;
10335;SDS011;5213;53.548;9.930;2023-04-03T05:28:29;9.57;;;3.22;;
10335;SDS011;5213;53.548;9.930;2023-04-03T05:30:58;6.63;;;3.72;;
10335;SDS011;5213;53.548;9.930;2023-04-03T05:33:25;8.80;;;3.30;;
10335;SDS011;5213;53.548;9.930;2023-04-03T05:35:51;8.48;;;3.15;;
10335;SDS011;5213;53.548;9.930;2023-04-03T05:38:17;9.57;;;3.40;;
10335;SDS011;5213;53.548;9.930;2023-04-03T05:40:43;8.13;;;3.10;;
10335;SDS011;5213;53.548;9.930;2023-04-03T05:43:09;4.95;;;2.80;;
10335;SDS011;5213;53.548;9.930;2023-04-03T05:45:35;5.30;;;3.10;;
10335;SDS011;5213;53.548;9.930;2023-04-03T05:48:01;6.40;;;3.50;;
10335;SDS011;5213;53.548;9.930;2023-04-03T05:50:28;6.55;;;3.03;;
10335;SDS011;5213;53.548;9.930;2023-04-03T05:52:55;4.30;;;2.95;;
10335;SDS011;5213;53.548;9.930;2023-04-03T05:55:22;4.00;;;2.80;;
10335;SDS011;5213;53.548;9.930;2023-04-03T05:57:48;9.93;;;3.30;;
10335;SDS011;5213;53.548;9.930;2023-04-03T06:00:15;4.68;;;2.78;;
10335;SDS011;5213;53.548;9.930;2023-04-03T06:02:41;5.53;;;3.25;;
10335;SDS011;5213;53.548;9.930;2023-04-03T06:05:08;6.15;;;3.20;;
10335;SDS011;5213;53.548;9.930;2023-04-03T06:07:36;7.40;;;3.30;;
10335;SDS011;5213;53.548;9.930;2023-04-03T06:10:02;7.22;;;2.88;;
10335;SDS011;5213;53.548;9.930;2023-04-03T06:12:28;6.00;;;2.92;;
10335;SDS011;5213;53.548;9.930;2023-04-03T06:14:55;6.78;;;3.10;;
10335;SDS011;5213;53.548;9.930;2023-04-03T06:17:21;4.75;;;2.70;;
10335;SDS011;5213;53.548;9.930;2023-04-03T06:19:47;5.28;;;2.92;;
10335;SDS011;5213;53.548;9.930;2023-04-03T06:22:13;5.45;;;2.40;;
10335;SDS011;5213;53.548;9.930;2023-04-03T06:24:40;3.95;;;2.38;;
10335;SDS011;5213;53.548;9.930;2023-04-03T06:27:06;6.28;;;2.50;;
10335;SDS011;5213;53.548;9.930;2023-04-03T06:29:32;4.60;;;2.30;;
10335;SDS011;5213;53.548;9.930;2023-04-03T06:31:58;5.00;;;2.30;;
10335;SDS011;5213;53.548;9.930;2023-04-03T06:34:24;3.55;;;2.30;;
10335;SDS011;5213;53.548;9.930;2023-04-03T06:36:51;5.60;;;2.13;;
10335;SDS011;5213;53.548;9.930;2023-04-03T06:39:18;5.47;;;2.30;;
10335;SDS011;5213;53.548;9.930;2023-04-03T06:41:48;2.65;;;2.03;;
10335;SDS011;5213;53.548;9.930;2023-04-03T06:44:14;3.42;;;2.30;;
10335;SDS011;5213;53.548;9.930;2023-04-03T06:46:41;2.75;;;2.10;;
10335;SDS011;5213;53.548;9.930;2023-04-03T06:49:07;2.85;;;2.10;;
10335;SDS011;5213;53.548;9.930;2023-04-03T06:51:34;2.42;;;2.17;;
10335;SDS011;5213;53.548;9.930;2023-04-03T06:54:00;4.68;;;2.20;;
10335;SDS011;5213;53.548;9.930;2023-04-03T06:56:27;3.13;;;2.13;;
10335;SDS011;5213;53.548;9.930;2023-04-03T06:58:53;3.35;;;2.13;;
10335;SDS011;5213;53.548;9.930;2023-04-03T07:01:22;3.03;;;1.90;;
10335;SDS011;5213;53.548;9.930;2023-04-03T07:03:48;3.58;;;2.20;;
10335;SDS011;5213;53.548;9.930;2023-04-03T07:06:15;3.65;;;1.92;;
10335;SDS011;5213;53.548;9.930;2023-04-03T07:08:41;5.25;;;2.10;;
10335;SDS011;5213;53.548;9.930;2023-04-03T07:11:07;4.07;;;1.88;;
10335;SDS011;5213;53.548;9.930;2023-04-03T07:13:34;3.67;;;2.00;;
10335;SDS011;5213;53.548;9.930;2023-04-03T07:16:00;2.38;;;1.60;;
10335;SDS011;5213;53.548;9.930;2023-04-03T07:18:27;4.60;;;2.13;;
10335;SDS011;5213;53.548;9.930;2023-04-03T07:20:53;2.50;;;1.80;;
10335;SDS011;5213;53.548;9.930;2023-04-03T07:23:19;3.65;;;2.33;;
10335;SDS011;5213;53.548;9.930;2023-04-03T07:25:45;4.25;;;1.70;;
10335;SDS011;5213;53.548;9.930;2023-04-03T07:28:12;3.05;;;1.80;;
10335;SDS011;5213;53.548;9.930;2023-04-03T07:30:45;3.17;;;1.90;;
10335;SDS011;5213;53.548;9.930;2023-04-03T07:33:12;3.30;;;1.70;;
10335;SDS011;5213;53.548;9.930;2023-04-03T07:35:38;1.98;;;1.48;;
10335;SDS011;5213;53.548;9.930;2023-04-03T07:38:05;2.38;;;1.15;;
10335;SDS011;5213;53.548;9.930;2023-04-03T07:40:31;3.38;;;1.40;;
10335;SDS011;5213;53.548;9.930;2023-04-03T07:42:57;2.42;;;1.30;;
10335;SDS011;5213;53.548;9.930;2023-04-03T07:45:23;2.15;;;1.33;;
10335;SDS011;5213;53.548;9.930;2023-04-03T07:47:49;3.38;;;1.45;;
10335;SDS011;5213;53.548;9.930;2023-04-03T07:50:16;2.55;;;1.50;;
10335;SDS011;5213;53.548;9.930;2023-04-03T07:52:42;3.67;;;1.42;;
10335;SDS011;5213;53.548;9.930;2023-04-03T07:55:08;2.83;;;1.52;;
10335;SDS011;5213;53.548;9.930;2023-04-03T07:57:35;2.85;;;1.55;;
10335;SDS011;5213;53.548;9.930;2023-04-03T08:00:01;1.15;;;1.05;;
10335;SDS011;5213;53.548;9.930;2023-04-03T08:02:27;1.85;;;1.23;;
10335;SDS011;5213;53.548;9.930;2023-04-03T08:04:53;3.08;;;1.50;;
10335;SDS011;5213;53.548;9.930;2023-04-03T08:07:20;3.78;;;1.30;;
10335;SDS011;5213;53.548;9.930;2023-04-03T08:09:46;3.45;;;1.23;;
10335;SDS011;5213;53.548;9.930;2023-04-03T08:12:12;3.60;;;1.50;;
10335;SDS011;5213;53.548;9.930;2023-04-03T08:14:41;2.22;;;1.45;;
10335;SDS011;5213;53.548;9.930;2023-04-03T08:17:07;4.55;;;1.60;;
10335;SDS011;5213;53.548;9.930;2023-04-03T08:19:36;3.22;;;1.33;;
10335;SDS011;5213;53.548;9.930;2023-04-03T08:22:02;3.47;;;1.52;;
10335;SDS011;5213;53.548;9.930;2023-04-03T08:24:30;2.20;;;1.42;;
10335;SDS011;5213;53.548;9.930;2023-04-03T08:26:56;2.78;;;1.65;;
10335;SDS011;5213;53.548;9.930;2023-04-03T08:29:22;3.03;;;1.35;;
10335;SDS011;5213;53.548;9.930;2023-04-03T08:31:48;2.45;;;1.30;;
10335;SDS011;5213;53.548;9.930;2023-04-03T08:34:15;2.53;;;1.20;;
10335;SDS011;5213;53.548;9.930;2023-04-03T08:36:41;2.60;;;1.30;;
10335;SDS011;5213;53.548;9.930;2023-04-03T08:39:07;2.63;;;1.63;;
10335;SDS011;5213;53.548;9.930;2023-04-03T08:41:35;1.55;;;1.45;;
10335;SDS011;5213;53.548;9.930;2023-04-03T08:49:21;2.45;;;1.48;;
10335;SDS011;5213;53.548;9.930;2023-04-03T08:51:48;2.53;;;1.55;;
10335;SDS011;5213;53.548;9.930;2023-04-03T08:54:24;2.08;;;1.13;;
10335;SDS011;5213;53.548;9.930;2023-04-03T08:56:51;2.75;;;1.35;;
10335;SDS011;5213;53.548;9.930;2023-04-03T08:59:19;1.73;;;1.25;;
10335;SDS011;5213;53.548;9.930;2023-04-03T09:01:50;1.73;;;1.23;;
10335;SDS011;5213;53.548;9.930;2023-04-03T09:04:16;1.63;;;1.35;;
10335;SDS011;5213;53.548;9.930;2023-04-03T09:06:44;3.33;;;1.50;;
10335;SDS011;5213;53.548;9.930;2023-04-03T09:11:45;3.80;;;1.40;;
10335;SDS011;5213;53.548;9.930;2023-04-03T09:16:58;2.83;;;1.60;;
10335;SDS011;5213;53.548;9.930;2023-04-03T09:22:01;3.47;;;1.60;;
10335;SDS011;5213;53.548;9.930;2023-04-03T09:24:28;2.72;;;1.48;;
10335;SDS011;5213;53.548;9.930;2023-04-03T09:27:15;3.97;;;1.40;;
10335;SDS011;5213;53.548;9.930;2023-04-03T09:29:42;2.60;;;1.40;;
10335;SDS011;5213;53.548;9.930;2023-04-03T09:32:25;1.95;;;1.38;;
10335;SDS011;5213;53.548;9.930;2023-04-03T09:34:52;2.88;;;1.42;;
10335;SDS011;5213;53.548;9.930;2023-04-03T09:37:36;2.83;;;1.45;;
10335;SDS011;5213;53.548;9.930;2023-04-03T09:40:03;1.90;;;1.27;;
10335;SDS011;5213;53.548;9.930;2023-04-03T09:42:30;3.33;;;1.30;;
10335;SDS011;5213;53.548;9.930;2023-04-03T09:45:01;1.25;;;1.15;;
10335;SDS011;5213;53.548;9.930;2023-04-03T09:47:28;1.40;;;1.30;;
10335;SDS011;5213;53.548;9.930;2023-04-03T09:50:41;1.48;;;1.15;;
10335;SDS011;5213;53.548;9.930;2023-04-03T09:52:43;3.28;;;1.50;;
10335;SDS011;5213;53.548;9.930;2023-04-03T09:57:42;1.63;;;1.25;;
10335;SDS011;5213;53.548;9.930;2023-04-03T10:00:22;1.98;;;1.30;;
10335;SDS011;5213;53.548;9.930;2023-04-03T10:02:52;1.92;;;1.17;;
10335;SDS011;5213;53.548;9.930;2023-04-03T10:05:39;1.48;;;1.35;;
10335;SDS011;5213;53.548;9.930;2023-04-03T10:08:51;1.63;;;1.38;;
10335;SDS011;5213;53.548;9.930;2023-04-03T10:13:53;1.58;;;1.48;;
10335;SDS011;5213;53.548;9.930;2023-04-03T10:16:21;1.23;;;1.13;;
10335;SDS011;5213;53.548;9.930;2023-04-03T10:19:02;1.75;;;1.13;;
10335;SDS011;5213;53.548;9.930;2023-04-03T10:21:33;1.95;;;1.40;;
10335;SDS011;5213;53.548;9.930;2023-04-03T10:24:09;2.70;;;1.10;;
10335;SDS011;5213;53.548;9.930;2023-04-03T10:26:39;1.00;;;1.00;;
10335;SDS011;5213;53.548;9.930;2023-04-03T10:31:50;3.00;;;1.20;;
10335;SDS011;5213;53.548;9.930;2023-04-03T10:34:27;1.95;;;1.17;;
10335;SDS011;5213;53.548;9.930;2023-04-03T10:37:57;5.03;;;1.15;;
10335;SDS011;5213;53.548;9.930;2023-04-03T10:39:59;2.08;;;1.25;;
10335;SDS011;5213;53.548;9.930;2023-04-03T10:47:24;1.08;;;1.08;;
10335;SDS011;5213;53.548;9.930;2023-04-03T10:50:20;2.88;;;1.30;;
10335;SDS011;5213;53.548;9.930;2023-04-03T10:58:00;1.02;;;1.00;;
10335;SDS011;5213;53.548;9.930;2023-04-03T11:03:01;2.13;;;1.13;;
10335;SDS011;5213;53.548;9.930;2023-04-03T11:07:55;1.67;;;1.25;;
10335;SDS011;5213;53.548;9.930;2023-04-03T11:10:40;2.58;;;1.20;;
10335;SDS011;5213;53.548;9.930;2023-04-03T11:13:14;2.45;;;1.27;;
10335;SDS011;5213;53.548;9.930;2023-04-03T11:15:43;1.75;;;1.20;;
10335;SDS011;5213;53.548;9.930;2023-04-03T11:20:38;1.40;;;1.30;;
10335;SDS011;5213;53.548;9.930;2023-04-03T11:23:12;1.77;;;1.40;;
10335;SDS011;5213;53.548;9.930;2023-04-03T11:25:42;1.95;;;1.20;;
10335;SDS011;5213;53.548;9.930;2023-04-03T11:28:12;1.83;;;1.30;;
10335;SDS011;5213;53.548;9.930;2023-04-03T11:35:37;2.53;;;1.40;;
10335;SDS011;5213;53.548;9.930;2023-04-03T11:38:03;3.15;;;1.45;;
10335;SDS011;5213;53.548;9.930;2023-04-03T11:40:32;1.38;;;1.27;;
10335;SDS011;5213;53.548;9.930;2023-04-03T11:45:27;2.08;;;1.55;;
10335;SDS011;5213;53.548;9.930;2023-04-03T11:48:00;2.20;;;1.48;;
10335;SDS011;5213;53.548;9.930;2023-04-03T11:50:30;2.95;;;1.42;;
10335;SDS011;5213;53.548;9.930;2023-04-03T11:52:58;1.50;;;1.30;;
10335;SDS011;5213;53.548;9.930;2023-04-03T12:08:27;1.98;;;1.30;;
10335;SDS011;5213;53.548;9.930;2023-04-03T12:16:18;1.88;;;1.45;;
10335;SDS011;5213;53.548;9.930;2023-04-03T12:21:15;1.58;;;1.30;;
10335;SDS011;5213;53.548;9.930;2023-04-03T12:32:01;2.63;;;1.40;;
10335;SDS011;5213;53.548;9.930;2023-04-03T12:37:03;1.85;;;1.50;;
10335;SDS011;5213;53.548;9.930;2023-04-03T12:39:35;1.70;;;1.60;;
10335;SDS011;5213;53.548;9.930;2023-04-03T12:47:24;2.42;;;1.30;;
10335;SDS011;5213;53.548;9.930;2023-04-03T12:49:52;1.40;;;1.30;;
10335;SDS011;5213;53.548;9.930;2023-04-03T12:52:21;2.25;;;1.45;;
10335;SDS011;5213;53.548;9.930;2023-04-03T12:54:48;2.88;;;1.30;;
10335;SDS011;5213;53.548;9.930;2023-04-03T12:59:42;1.33;;;1.23;;
10335;SDS011;5213;53.548;9.930;2023-04-03T13:02:20;1.40;;;1.30;;
10335;SDS011;5213;53.548;9.930;2023-04-03T13:04:48;2.83;;;1.48;;
10335;SDS011;5213;53.548;9.930;2023-04-03T13:07:25;2.30;;;1.40;;
10335;SDS011;5213;53.548;9.930;2023-04-03T13:12:32;1.95;;;1.52;;
10335;SDS011;5213;53.548;9.930;2023-04-03T13:15:00;1.70;;;1.20;;
10335;SDS011;5213;53.548;9.930;2023-04-03T13:17:29;2.40;;;1.30;;
10335;SDS011;5213;53.548;9.930;2023-04-03T13:19:56;2.25;;;1.40;;
10335;SDS011;5213;53.548;9.930;2023-04-03T13:22:36;1.80;;;1.30;;
10335;SDS011;5213;53.548;9.930;2023-04-03T13:25:08;2.65;;;1.30;;
10335;SDS011;5213;53.548;9.930;2023-04-03T13:27:35;1.55;;;1.40;;
10335;SDS011;5213;53.548;9.930;2023-04-03T13:30:02;2.10;;;1.17;;
10335;SDS011;5213;53.548;9.930;2023-04-03T13:32:29;2.25;;;1.30;;
10335;SDS011;5213;53.548;9.930;2023-04-03T13:34:56;1.30;;;1.20;;
10335;SDS011;5213;53.548;9.930;2023-04-03T13:37:29;2.45;;;1.33;;
10335;SDS011;5213;53.548;9.930;2023-04-03T13:39:57;3.03;;;1.17;;
10335;SDS011;5213;53.548;9.930;2023-04-03T13:42:24;2.92;;;1.10;;
10335;SDS011;5213;53.548;9.930;2023-04-03T13:45:11;2.53;;;1.60;;
10335;SDS011;5213;53.548;9.930;2023-04-03T13:47:42;2.30;;;1.33;;
10335;SDS011;5213;53.548;9.930;2023-04-03T13:52:47;1.65;;;1.33;;
10335;SDS011;5213;53.548;9.930;2023-04-03T13:55:18;1.98;;;1.20;;
10335;SDS011;5213;53.548;9.930;2023-04-03T13:57:56;2.00;;;1.80;;
10335;SDS011;5213;53.548;9.930;2023-04-03T14:03:25;1.65;;;1.52;;
10335;SDS011;5213;53.548;9.930;2023-04-03T14:05:51;1.95;;;1.30;;
10335;SDS011;5213;53.548;9.930;2023-04-03T14:08:18;1.48;;;1.20;;
10335;SDS011;5213;53.548;9.930;2023-04-03T14:10:44;1.48;;;1.38;;
10335;SDS011;5213;53.548;9.930;2023-04-03T14:13:15;2.85;;;1.27;;
10335;SDS011;5213;53.548;9.930;2023-04-03T14:15:42;1.48;;;1.30;;
10335;SDS011;5213;53.548;9.930;2023-04-03T14:18:12;2.45;;;1.65;;
10335;SDS011;5213;53.548;9.930;2023-04-03T14:20:39;2.58;;;1.35;;
10335;SDS011;5213;53.548;9.930;2023-04-03T14:23:05;2.17;;;1.65;;
10335;SDS011;5213;53.548;9.930;2023-04-03T14:25:31;1.95;;;1.38;;
10335;SDS011;5213;53.548;9.930;2023-04-03T14:27:58;1.30;;;1.20;;
10335;SDS011;5213;53.548;9.930;2023-04-03T14:30:33;2.58;;;1.30;;
10335;SDS011;5213;53.548;9.930;2023-04-03T14:33:00;2.75;;;1.20;;
10335;SDS011;5213;53.548;9.930;2023-04-03T14:35:27;1.38;;;1.08;;
10335;SDS011;5213;53.548;9.930;2023-04-03T14:37:53;1.17;;;1.17;;
10335;SDS011;5213;53.548;9.930;2023-04-03T14:40:24;2.00;;;1.10;;
10335;SDS011;5213;53.548;9.930;2023-04-03T14:42:51;1.60;;;1.08;;
10335;SDS011;5213;53.548;9.930;2023-04-03T14:45:19;4.07;;;1.30;;
10335;SDS011;5213;53.548;9.930;2023-04-03T14:47:47;1.67;;;1.25;;
10335;SDS011;5213;53.548;9.930;2023-04-03T14:50:15;2.28;;;1.48;;
10335;SDS011;5213;53.548;9.930;2023-04-03T14:52:42;1.70;;;1.38;;
10335;SDS011;5213;53.548;9.930;2023-04-03T14:55:08;1.25;;;1.15;;
10335;SDS011;5213;53.548;9.930;2023-04-03T14:57:34;2.28;;;1.38;;
10335;SDS011;5213;53.548;9.930;2023-04-03T15:00:00;1.85;;;1.10;;
10335;SDS011;5213;53.548;9.930;2023-04-03T15:02:29;2.08;;;1.35;;
10335;SDS011;5213;53.548;9.930;2023-04-03T15:04:56;1.67;;;1.10;;
10335;SDS011;5213;53.548;9.930;2023-04-03T15:07:22;3.67;;;1.50;;
10335;SDS011;5213;53.548;9.930;2023-04-03T15:09:49;1.55;;;1.30;;
10335;SDS011;5213;53.548;9.930;2023-04-03T15:12:15;2.28;;;1.45;;
10335;SDS011;5213;53.548;9.930;2023-04-03T15:14:42;2.33;;;1.50;;
10335;SDS011;5213;53.548;9.930;2023-04-03T15:17:10;2.30;;;1.50;;
10335;SDS011;5213;53.548;9.930;2023-04-03T15:19:39;2.20;;;1.30;;
10335;SDS011;5213;53.548;9.930;2023-04-03T15:22:05;3.42;;;1.40;;
10335;SDS011;5213;53.548;9.930;2023-04-03T15:24:32;4.07;;;1.77;;
10335;SDS011;5213;53.548;9.930;2023-04-03T15:26:58;2.55;;;1.60;;
10335;SDS011;5213;53.548;9.930;2023-04-03T15:29:24;1.60;;;1.50;;
10335;SDS011;5213;53.548;9.930;2023-04-03T15:31:50;1.60;;;1.50;;
10335;SDS011;5213;53.548;9.930;2023-04-03T15:34:18;2.13;;;1.40;;
10335;SDS011;5213;53.548;9.930;2023-04-03T15:36:46;2.67;;;1.60;;
10335;SDS011;5213;53.548;9.930;2023-04-03T15:39:12;1.75;;;1.40;;
10335;SDS011;5213;53.548;9.930;2023-04-03T15:41:38;2.97;;;1.58;;
10335;SDS011;5213;53.548;9.930;2023-04-03T15:44:05;2.30;;;1.50;;
10335;SDS011;5213;53.548;9.930;2023-04-03T15:46:31;2.08;;;1.40;;
10335;SDS011;5213;53.548;9.930;2023-04-03T15:48:58;4.50;;;1.42;;
10335;SDS011;5213;53.548;9.930;2023-04-03T15:51:24;2.22;;;1.63;;
10335;SDS011;5213;53.548;9.930;2023-04-03T15:53:50;2.25;;;1.50;;
10335;SDS011;5213;53.548;9.930;2023-04-03T15:56:16;2.17;;;1.52;;
10335;SDS011;5213;53.548;9.930;2023-04-03T15:58:42;2.50;;;1.40;;
10335;SDS011;5213;53.548;9.930;2023-04-03T16:01:09;1.92;;;1.45;;
10335;SDS011;5213;53.548;9.930;2023-04-03T16:03:35;3.33;;;1.70;;
10335;SDS011;5213;53.548;9.930;2023-04-03T16:06:03;1.52;;;1.30;;
10335;SDS011;5213;53.548;9.930;2023-04-03T16:08:29;2.53;;;1.50;;
10335;SDS011;5213;53.548;9.930;2023-04-03T16:10:56;1.73;;;1.50;;
10335;SDS011;5213;53.548;9.930;2023-04-03T16:13:22;3.50;;;1.52;;
10335;SDS011;5213;53.548;9.930;2023-04-03T16:15:48;2.97;;;1.58;;
10335;SDS011;5213;53.548;9.930;2023-04-03T16:18:14;3.53;;;1.70;;
10335;SDS011;5213;53.548;9.930;2023-04-03T16:20:40;3.28;;;1.70;;
10335;SDS011;5213;53.548;9.930;2023-04-03T16:23:08;3.58;;;1.55;;
10335;SDS011;5213;53.548;9.930;2023-04-03T16:25:34;2.15;;;1.50;;
10335;SDS011;5213;53.548;9.930;2023-04-03T16:28:00;1.55;;;1.45;;
10335;SDS011;5213;53.548;9.930;2023-04-03T16:30:26;2.53;;;1.77;;
10335;SDS011;5213;53.548;9.930;2023-04-03T16:32:53;3.75;;;1.50;;
10335;SDS011;5213;53.548;9.930;2023-04-03T16:35:20;3.90;;;1.80;;
10335;SDS011;5213;53.548;9.930;2023-04-03T16:37:46;1.95;;;1.45;;
10335;SDS011;5213;53.548;9.930;2023-04-03T16:40:12;2.40;;;1.48;;
10335;SDS011;5213;53.548;9.930;2023-04-03T16:42:38;2.08;;;1.80;;
10335;SDS011;5213;53.548;9.930;2023-04-03T16:45:05;2.13;;;1.63;;
10335;SDS011;5213;53.548;9.930;2023-04-03T16:47:31;2.00;;;1.65;;